sensor_id;sensor_type;location;lat;lon;timestamp;P1;durP1;ratioP1;P2;durP2;ratioP2
36241;SDS011;22283;42.748;12.732;2023-03-23T00:02:40;15.90;;;7.77;;
36241;SDS011;22283;42.748;12.732;2023-03-23T00:07:41;11.63;;;7.37;;
36241;SDS011;22283;42.748;12.732;2023-03-23T00:12:45;11.73;;;6.95;;
36241;SDS011;22283;42.748;12.732;2023-03-23T00:17:49;9.80;;;5.82;;
36241;SDS011;22283;42.748;12.732;2023-03-23T00:22:51;9.02;;;5.75;;
36241;SDS011;22283;42.748;12.732;2023-03-23T00:27:51;8.57;;;5.77;;
36241;SDS011;22283;42.748;12.732;2023-03-23T00:32:52;9.77;;;7.10;;
36241;SDS011;22283;42.748;12.732;2023-03-23T00:37:52;10.93;;;6.93;;
36241;SDS011;22283;42.748;12.732;2023-03-23T00:42:53;11.97;;;7.40;;
36241;SDS011;22283;42.748;12.732;2023-03-23T00:47:54;11.17;;;6.63;;
36241;SDS011;22283;42.748;12.732;2023-03-23T00:52:54;9.43;;;6.03;;
36241;SDS011;22283;42.748;12.732;2023-03-23T00:57:56;11.80;;;6.65;;
36241;SDS011;22283;42.748;12.732;2023-03-23T01:02:57;11.17;;;6.60;;
36241;SDS011;22283;42.748;12.732;2023-03-23T01:07:58;11.13;;;6.60;;
36241;SDS011;22283;42.748;12.732;2023-03-23T01:13:00;10.18;;;6.30;;
36241;SDS011;22283;42.748;12.732;2023-03-23T01:18:01;9.75;;;5.78;;
36241;SDS011;22283;42.748;12.732;2023-03-23T01:23:02;8.38;;;5.93;;
36241;SDS011;22283;42.748;12.732;2023-03-23T01:28:04;10.02;;;6.07;;
36241;SDS011;22283;42.748;12.732;2023-03-23T01:33:04;11.90;;;6.63;;
36241;SDS011;22283;42.748;12.732;2023-03-23T01:38:05;13.27;;;7.50;;
36241;SDS011;22283;42.748;12.732;2023-03-23T01:43:13;13.13;;;6.87;;
36241;SDS011;22283;42.748;12.732;2023-03-23T01:53:21;8.20;;;5.57;;
36241;SDS011;22283;42.748;12.732;2023-03-23T01:58:26;10.98;;;7.00;;
36241;SDS011;22283;42.748;12.732;2023-03-23T02:03:31;11.65;;;6.80;;
36241;SDS011;22283;42.748;12.732;2023-03-23T02:13:35;10.23;;;7.18;;
36241;SDS011;22283;42.748;12.732;2023-03-23T02:29:26;12.45;;;6.13;;
36241;SDS011;22283;42.748;12.732;2023-03-23T02:34:35;9.35;;;6.60;;
36241;SDS011;22283;42.748;12.732;2023-03-23T02:39:48;10.48;;;6.32;;
36241;SDS011;22283;42.748;12.732;2023-03-23T02:44:52;10.20;;;6.18;;
36241;SDS011;22283;42.748;12.732;2023-03-23T02:49:56;8.60;;;5.28;;
36241;SDS011;22283;42.748;12.732;2023-03-23T02:54:59;9.57;;;5.28;;
36241;SDS011;22283;42.748;12.732;2023-03-23T03:00:03;8.98;;;5.68;;
36241;SDS011;22283;42.748;12.732;2023-03-23T03:10:31;8.80;;;5.85;;
36241;SDS011;22283;42.748;12.732;2023-03-23T03:15:34;12.00;;;5.68;;
36241;SDS011;22283;42.748;12.732;2023-03-23T03:20:42;9.27;;;5.70;;
36241;SDS011;22283;42.748;12.732;2023-03-23T03:25:46;9.50;;;5.50;;
36241;SDS011;22283;42.748;12.732;2023-03-23T03:30:54;7.40;;;4.97;;
36241;SDS011;22283;42.748;12.732;2023-03-23T03:35:58;12.25;;;5.65;;
36241;SDS011;22283;42.748;12.732;2023-03-23T03:41:02;10.88;;;5.57;;
36241;SDS011;22283;42.748;12.732;2023-03-23T03:46:03;7.93;;;5.60;;
36241;SDS011;22283;42.748;12.732;2023-03-23T03:51:06;9.80;;;5.90;;
36241;SDS011;22283;42.748;12.732;2023-03-23T03:56:10;10.10;;;5.85;;
36241;SDS011;22283;42.748;12.732;2023-03-23T04:01:19;9.82;;;6.53;;
36241;SDS011;22283;42.748;12.732;2023-03-23T04:06:23;11.13;;;6.18;;
36241;SDS011;22283;42.748;12.732;2023-03-23T04:11:25;9.75;;;5.90;;
36241;SDS011;22283;42.748;12.732;2023-03-23T04:16:31;9.07;;;6.20;;
36241;SDS011;22283;42.748;12.732;2023-03-23T04:21:35;10.25;;;6.15;;
36241;SDS011;22283;42.748;12.732;2023-03-23T04:26:36;7.80;;;5.67;;
36241;SDS011;22283;42.748;12.732;2023-03-23T04:31:48;9.70;;;6.07;;
36241;SDS011;22283;42.748;12.732;2023-03-23T04:37:03;9.85;;;6.43;;
36241;SDS011;22283;42.748;12.732;2023-03-23T04:42:05;15.35;;;7.13;;
36241;SDS011;22283;42.748;12.732;2023-03-23T04:47:31;11.48;;;6.15;;
36241;SDS011;22283;42.748;12.732;2023-03-23T04:52:36;12.20;;;5.95;;
36241;SDS011;22283;42.748;12.732;2023-03-23T04:57:48;10.48;;;6.00;;
36241;SDS011;22283;42.748;12.732;2023-03-23T05:03:16;11.32;;;6.88;;
36241;SDS011;22283;42.748;12.732;2023-03-23T05:08:24;12.30;;;6.28;;
36241;SDS011;22283;42.748;12.732;2023-03-23T05:13:28;8.88;;;6.22;;
36241;SDS011;22283;42.748;12.732;2023-03-23T05:18:32;22.30;;;7.03;;
36241;SDS011;22283;42.748;12.732;2023-03-23T05:23:36;20.45;;;7.60;;
36241;SDS011;22283;42.748;12.732;2023-03-23T05:28:47;11.73;;;5.75;;
36241;SDS011;22283;42.748;12.732;2023-03-23T05:33:58;10.80;;;6.13;;
36241;SDS011;22283;42.748;12.732;2023-03-23T05:39:07;9.93;;;5.90;;
36241;SDS011;22283;42.748;12.732;2023-03-23T05:44:36;10.32;;;5.70;;
36241;SDS011;22283;42.748;12.732;2023-03-23T05:49:37;17.13;;;6.83;;
36241;SDS011;22283;42.748;12.732;2023-03-23T05:54:41;15.88;;;7.20;;
36241;SDS011;22283;42.748;12.732;2023-03-23T05:59:43;18.40;;;6.20;;
36241;SDS011;22283;42.748;12.732;2023-03-23T06:04:50;7.53;;;5.38;;
36241;SDS011;22283;42.748;12.732;2023-03-23T06:15:06;13.77;;;6.43;;
36241;SDS011;22283;42.748;12.732;2023-03-23T06:20:33;9.18;;;5.15;;
36241;SDS011;22283;42.748;12.732;2023-03-23T06:25:47;21.92;;;5.80;;
36241;SDS011;22283;42.748;12.732;2023-03-23T06:30:49;21.25;;;5.25;;
36241;SDS011;22283;42.748;12.732;2023-03-23T06:35:50;7.70;;;4.70;;
36241;SDS011;22283;42.748;12.732;2023-03-23T06:41:07;8.82;;;4.90;;
36241;SDS011;22283;42.748;12.732;2023-03-23T06:46:09;12.73;;;6.90;;
36241;SDS011;22283;42.748;12.732;2023-03-23T06:51:12;14.40;;;4.97;;
36241;SDS011;22283;42.748;12.732;2023-03-23T06:56:16;12.90;;;4.78;;
36241;SDS011;22283;42.748;12.732;2023-03-23T07:01:17;27.42;;;5.57;;
36241;SDS011;22283;42.748;12.732;2023-03-23T07:06:27;12.88;;;4.88;;
36241;SDS011;22283;42.748;12.732;2023-03-23T07:11:32;11.15;;;4.97;;
36241;SDS011;22283;42.748;12.732;2023-03-23T07:16:38;20.13;;;6.30;;
36241;SDS011;22283;42.748;12.732;2023-03-23T07:21:39;17.80;;;7.17;;
36241;SDS011;22283;42.748;12.732;2023-03-23T07:26:40;17.75;;;8.18;;
36241;SDS011;22283;42.748;12.732;2023-03-23T07:31:44;13.10;;;8.00;;
36241;SDS011;22283;42.748;12.732;2023-03-23T07:36:45;17.70;;;8.40;;
36241;SDS011;22283;42.748;12.732;2023-03-23T07:41:47;10.48;;;6.82;;
36241;SDS011;22283;42.748;12.732;2023-03-23T07:46:54;12.27;;;6.65;;
36241;SDS011;22283;42.748;12.732;2023-03-23T07:52:03;11.45;;;6.85;;
36241;SDS011;22283;42.748;12.732;2023-03-23T07:57:03;17.43;;;7.67;;
36241;SDS011;22283;42.748;12.732;2023-03-23T08:02:09;17.65;;;12.65;;
36241;SDS011;22283;42.748;12.732;2023-03-23T08:07:37;25.08;;;16.08;;
36241;SDS011;22283;42.748;12.732;2023-03-23T08:12:46;11.70;;;9.13;;
36241;SDS011;22283;42.748;12.732;2023-03-23T08:18:02;15.95;;;8.43;;
36241;SDS011;22283;42.748;12.732;2023-03-23T08:23:16;17.17;;;7.88;;
36241;SDS011;22283;42.748;12.732;2023-03-23T08:28:35;14.88;;;8.52;;
36241;SDS011;22283;42.748;12.732;2023-03-23T08:34:03;9.70;;;6.68;;
36241;SDS011;22283;42.748;12.732;2023-03-23T08:39:26;16.55;;;8.55;;
36241;SDS011;22283;42.748;12.732;2023-03-23T08:45:02;17.38;;;8.85;;
36241;SDS011;22283;42.748;12.732;2023-03-23T08:50:33;15.45;;;8.98;;
36241;SDS011;22283;42.748;12.732;2023-03-23T08:55:53;10.93;;;8.73;;
36241;SDS011;22283;42.748;12.732;2023-03-23T09:01:14;23.95;;;9.80;;
36241;SDS011;22283;42.748;12.732;2023-03-23T09:06:18;17.67;;;10.95;;
36241;SDS011;22283;42.748;12.732;2023-03-23T09:11:21;16.42;;;11.65;;
36241;SDS011;22283;42.748;12.732;2023-03-23T09:16:22;17.45;;;12.27;;
36241;SDS011;22283;42.748;12.732;2023-03-23T09:21:23;14.83;;;11.20;;
36241;SDS011;22283;42.748;12.732;2023-03-23T09:26:26;16.75;;;12.10;;
36241;SDS011;22283;42.748;12.732;2023-03-23T09:31:26;15.45;;;11.32;;
36241;SDS011;22283;42.748;12.732;2023-03-23T09:36:27;26.67;;;11.53;;
36241;SDS011;22283;42.748;12.732;2023-03-23T09:41:51;21.02;;;11.85;;
36241;SDS011;22283;42.748;12.732;2023-03-23T09:47:05;19.75;;;11.63;;
36241;SDS011;22283;42.748;12.732;2023-03-23T09:52:17;18.63;;;9.35;;
36241;SDS011;22283;42.748;12.732;2023-03-23T09:57:24;16.85;;;9.50;;
36241;SDS011;22283;42.748;12.732;2023-03-23T10:02:36;15.23;;;8.75;;
36241;SDS011;22283;42.748;12.732;2023-03-23T10:07:38;12.13;;;8.45;;
36241;SDS011;22283;42.748;12.732;2023-03-23T10:12:48;13.53;;;6.60;;
36241;SDS011;22283;42.748;12.732;2023-03-23T10:17:57;11.07;;;7.65;;
36241;SDS011;22283;42.748;12.732;2023-03-23T10:23:12;16.98;;;7.47;;
36241;SDS011;22283;42.748;12.732;2023-03-23T10:33:43;14.05;;;7.95;;
36241;SDS011;22283;42.748;12.732;2023-03-23T10:39:05;12.30;;;6.60;;
36241;SDS011;22283;42.748;12.732;2023-03-23T10:44:13;16.65;;;7.78;;
36241;SDS011;22283;42.748;12.732;2023-03-23T10:49:15;15.05;;;7.53;;
36241;SDS011;22283;42.748;12.732;2023-03-23T10:54:26;12.57;;;6.53;;
36241;SDS011;22283;42.748;12.732;2023-03-23T10:59:32;11.57;;;7.80;;
36241;SDS011;22283;42.748;12.732;2023-03-23T11:04:33;16.77;;;6.60;;
36241;SDS011;22283;42.748;12.732;2023-03-23T11:09:36;8.45;;;4.82;;
36241;SDS011;22283;42.748;12.732;2023-03-23T11:14:51;7.95;;;4.80;;
36241;SDS011;22283;42.748;12.732;2023-03-23T11:19:52;12.73;;;5.20;;
36241;SDS011;22283;42.748;12.732;2023-03-23T11:24:59;9.00;;;4.90;;
36241;SDS011;22283;42.748;12.732;2023-03-23T11:30:08;7.10;;;4.50;;
36241;SDS011;22283;42.748;12.732;2023-03-23T11:35:15;8.10;;;4.93;;
36241;SDS011;22283;42.748;12.732;2023-03-23T11:40:23;6.75;;;4.15;;
36241;SDS011;22283;42.748;12.732;2023-03-23T11:45:38;11.07;;;4.85;;
36241;SDS011;22283;42.748;12.732;2023-03-23T11:56:11;11.10;;;4.60;;
36241;SDS011;22283;42.748;12.732;2023-03-23T12:01:21;8.18;;;4.00;;
36241;SDS011;22283;42.748;12.732;2023-03-23T12:06:30;5.65;;;3.40;;
36241;SDS011;22283;42.748;12.732;2023-03-23T12:27:39;9.00;;;4.28;;
36241;SDS011;22283;42.748;12.732;2023-03-23T12:43:50;5.30;;;2.97;;
36241;SDS011;22283;42.748;12.732;2023-03-23T12:48:48;10.52;;;2.88;;
36241;SDS011;22283;42.748;12.732;2023-03-23T13:04:23;4.68;;;2.38;;
36241;SDS011;22283;42.748;12.732;2023-03-23T13:09:46;6.05;;;2.40;;
36241;SDS011;22283;42.748;12.732;2023-03-23T13:25:08;5.40;;;2.07;;
36241;SDS011;22283;42.748;12.732;2023-03-23T13:30:19;5.07;;;2.22;;
36241;SDS011;22283;42.748;12.732;2023-03-23T13:35:23;7.30;;;2.30;;
36241;SDS011;22283;42.748;12.732;2023-03-23T13:50:28;4.53;;;2.10;;
36241;SDS011;22283;42.748;12.732;2023-03-23T13:55:39;3.90;;;2.00;;
36241;SDS011;22283;42.748;12.732;2023-03-23T14:00:46;7.68;;;2.13;;
36241;SDS011;22283;42.748;12.732;2023-03-23T14:05:50;4.25;;;2.53;;
36241;SDS011;22283;42.748;12.732;2023-03-23T14:16:50;8.65;;;4.88;;
36241;SDS011;22283;42.748;12.732;2023-03-23T14:21:55;3.47;;;1.83;;
36241;SDS011;22283;42.748;12.732;2023-03-23T14:32:06;4.85;;;2.13;;
36241;SDS011;22283;42.748;12.732;2023-03-23T14:37:12;4.10;;;2.30;;
36241;SDS011;22283;42.748;12.732;2023-03-23T14:42:16;6.40;;;2.88;;
36241;SDS011;22283;42.748;12.732;2023-03-23T14:47:20;9.05;;;2.47;;
36241;SDS011;22283;42.748;12.732;2023-03-23T14:52:22;5.35;;;2.25;;
36241;SDS011;22283;42.748;12.732;2023-03-23T14:57:29;3.97;;;2.05;;
36241;SDS011;22283;42.748;12.732;2023-03-23T15:02:36;5.18;;;2.50;;
36241;SDS011;22283;42.748;12.732;2023-03-23T15:07:39;4.68;;;2.00;;
36241;SDS011;22283;42.748;12.732;2023-03-23T15:12:44;5.07;;;2.22;;
36241;SDS011;22283;42.748;12.732;2023-03-23T15:17:46;40.72;;;5.82;;
36241;SDS011;22283;42.748;12.732;2023-03-23T15:22:47;8.75;;;3.13;;
36241;SDS011;22283;42.748;12.732;2023-03-23T15:27:52;5.78;;;2.95;;
36241;SDS011;22283;42.748;12.732;2023-03-23T15:32:59;66.63;;;52.17;;
36241;SDS011;22283;42.748;12.732;2023-03-23T15:38:03;79.03;;;60.67;;
36241;SDS011;22283;42.748;12.732;2023-03-23T15:48:19;33.97;;;19.42;;
36241;SDS011;22283;42.748;12.732;2023-03-23T15:58:28;9.95;;;5.07;;
36241;SDS011;22283;42.748;12.732;2023-03-23T16:03:34;33.67;;;13.20;;
36241;SDS011;22283;42.748;12.732;2023-03-23T16:08:50;5.78;;;2.85;;
36241;SDS011;22283;42.748;12.732;2023-03-23T16:13:52;9.98;;;4.00;;
36241;SDS011;22283;42.748;12.732;2023-03-23T16:18:54;13.45;;;4.30;;
36241;SDS011;22283;42.748;12.732;2023-03-23T16:23:55;19.52;;;4.50;;
36241;SDS011;22283;42.748;12.732;2023-03-23T16:28:56;12.88;;;4.38;;
36241;SDS011;22283;42.748;12.732;2023-03-23T16:33:57;9.02;;;3.30;;
36241;SDS011;22283;42.748;12.732;2023-03-23T16:38:57;9.10;;;4.53;;
36241;SDS011;22283;42.748;12.732;2023-03-23T16:43:58;17.30;;;8.73;;
36241;SDS011;22283;42.748;12.732;2023-03-23T16:48:59;14.03;;;3.93;;
36241;SDS011;22283;42.748;12.732;2023-03-23T16:53:59;21.73;;;8.50;;
36241;SDS011;22283;42.748;12.732;2023-03-23T16:59:00;12.50;;;6.27;;
36241;SDS011;22283;42.748;12.732;2023-03-23T17:04:01;18.23;;;7.60;;
36241;SDS011;22283;42.748;12.732;2023-03-23T17:09:01;18.03;;;6.83;;
36241;SDS011;22283;42.748;12.732;2023-03-23T17:14:02;14.25;;;4.95;;
36241;SDS011;22283;42.748;12.732;2023-03-23T17:19:03;16.77;;;5.00;;
36241;SDS011;22283;42.748;12.732;2023-03-23T17:24:03;10.18;;;4.80;;
36241;SDS011;22283;42.748;12.732;2023-03-23T17:29:04;11.13;;;5.78;;
36241;SDS011;22283;42.748;12.732;2023-03-23T17:34:05;12.80;;;5.17;;
36241;SDS011;22283;42.748;12.732;2023-03-23T17:39:06;13.93;;;5.00;;
36241;SDS011;22283;42.748;12.732;2023-03-23T17:44:07;11.40;;;6.60;;
36241;SDS011;22283;42.748;12.732;2023-03-23T17:49:07;18.23;;;6.13;;
36241;SDS011;22283;42.748;12.732;2023-03-23T17:54:08;58.97;;;8.67;;
36241;SDS011;22283;42.748;12.732;2023-03-23T17:59:09;17.85;;;7.05;;
36241;SDS011;22283;42.748;12.732;2023-03-23T18:04:10;13.95;;;7.30;;
36241;SDS011;22283;42.748;12.732;2023-03-23T18:09:11;28.37;;;10.03;;
36241;SDS011;22283;42.748;12.732;2023-03-23T18:14:11;16.77;;;10.10;;
36241;SDS011;22283;42.748;12.732;2023-03-23T18:19:12;33.87;;;15.90;;
36241;SDS011;22283;42.748;12.732;2023-03-23T18:24:13;24.80;;;15.67;;
36241;SDS011;22283;42.748;12.732;2023-03-23T18:29:13;24.23;;;11.67;;
36241;SDS011;22283;42.748;12.732;2023-03-23T18:34:14;15.67;;;9.70;;
36241;SDS011;22283;42.748;12.732;2023-03-23T18:39:15;22.17;;;10.97;;
36241;SDS011;22283;42.748;12.732;2023-03-23T18:44:16;24.60;;;10.87;;
36241;SDS011;22283;42.748;12.732;2023-03-23T18:49:16;20.80;;;9.90;;
36241;SDS011;22283;42.748;12.732;2023-03-23T18:54:17;20.93;;;10.40;;
36241;SDS011;22283;42.748;12.732;2023-03-23T18:59:18;26.83;;;9.70;;
36241;SDS011;22283;42.748;12.732;2023-03-23T19:04:19;17.10;;;9.00;;
36241;SDS011;22283;42.748;12.732;2023-03-23T19:09:21;19.30;;;7.75;;
36241;SDS011;22283;42.748;12.732;2023-03-23T19:14:22;13.40;;;6.00;;
36241;SDS011;22283;42.748;12.732;2023-03-23T19:19:22;22.57;;;7.50;;
36241;SDS011;22283;42.748;12.732;2023-03-23T19:24:23;16.90;;;8.13;;
36241;SDS011;22283;42.748;12.732;2023-03-23T19:29:25;17.40;;;7.07;;
36241;SDS011;22283;42.748;12.732;2023-03-23T19:34:26;17.20;;;6.97;;
36241;SDS011;22283;42.748;12.732;2023-03-23T19:39:27;18.45;;;7.50;;
36241;SDS011;22283;42.748;12.732;2023-03-23T19:44:28;13.63;;;7.53;;
36241;SDS011;22283;42.748;12.732;2023-03-23T19:49:29;21.17;;;9.93;;
36241;SDS011;22283;42.748;12.732;2023-03-23T19:54:30;13.93;;;7.77;;
36241;SDS011;22283;42.748;12.732;2023-03-23T19:59:31;16.27;;;10.05;;
36241;SDS011;22283;42.748;12.732;2023-03-23T20:04:31;15.50;;;7.77;;
36241;SDS011;22283;42.748;12.732;2023-03-23T20:09:34;17.33;;;8.73;;
36241;SDS011;22283;42.748;12.732;2023-03-23T20:14:36;16.38;;;6.30;;
36241;SDS011;22283;42.748;12.732;2023-03-23T20:19:43;11.07;;;5.25;;
36241;SDS011;22283;42.748;12.732;2023-03-23T20:24:43;10.67;;;5.07;;
36241;SDS011;22283;42.748;12.732;2023-03-23T20:29:47;10.90;;;4.97;;
36241;SDS011;22283;42.748;12.732;2023-03-23T20:34:48;9.37;;;5.60;;
36241;SDS011;22283;42.748;12.732;2023-03-23T20:39:49;9.83;;;5.47;;
36241;SDS011;22283;42.748;12.732;2023-03-23T20:44:50;8.47;;;5.47;;
36241;SDS011;22283;42.748;12.732;2023-03-23T20:49:51;10.87;;;6.13;;
36241;SDS011;22283;42.748;12.732;2023-03-23T20:54:52;11.27;;;6.23;;
36241;SDS011;22283;42.748;12.732;2023-03-23T20:59:54;9.90;;;5.00;;
36241;SDS011;22283;42.748;12.732;2023-03-23T21:04:55;9.75;;;5.18;;
36241;SDS011;22283;42.748;12.732;2023-03-23T21:09:57;11.02;;;6.50;;
36241;SDS011;22283;42.748;12.732;2023-03-23T21:14:58;13.45;;;6.32;;
36241;SDS011;22283;42.748;12.732;2023-03-23T21:19:59;12.43;;;5.67;;
36241;SDS011;22283;42.748;12.732;2023-03-23T21:30:02;12.30;;;6.05;;
36241;SDS011;22283;42.748;12.732;2023-03-23T21:35:05;8.73;;;5.97;;
36241;SDS011;22283;42.748;12.732;2023-03-23T21:40:06;9.63;;;5.73;;
36241;SDS011;22283;42.748;12.732;2023-03-23T21:45:13;15.18;;;9.32;;
36241;SDS011;22283;42.748;12.732;2023-03-23T21:50:17;13.35;;;6.80;;
36241;SDS011;22283;42.748;12.732;2023-03-23T21:55:21;16.17;;;7.90;;
36241;SDS011;22283;42.748;12.732;2023-03-23T22:00:22;12.68;;;8.23;;
36241;SDS011;22283;42.748;12.732;2023-03-23T22:05:23;10.70;;;6.27;;
36241;SDS011;22283;42.748;12.732;2023-03-23T22:10:23;11.20;;;5.87;;
36241;SDS011;22283;42.748;12.732;2023-03-23T22:15:24;13.00;;;5.90;;
36241;SDS011;22283;42.748;12.732;2023-03-23T22:20:27;9.25;;;5.38;;
36241;SDS011;22283;42.748;12.732;2023-03-23T22:25:28;13.90;;;6.07;;
36241;SDS011;22283;42.748;12.732;2023-03-23T22:30:30;8.93;;;6.07;;
36241;SDS011;22283;42.748;12.732;2023-03-23T22:35:32;9.70;;;5.75;;
36241;SDS011;22283;42.748;12.732;2023-03-23T22:40:33;10.10;;;5.40;;
36241;SDS011;22283;42.748;12.732;2023-03-23T22:45:34;10.67;;;5.27;;
36241;SDS011;22283;42.748;12.732;2023-03-23T22:50:35;10.90;;;4.80;;
36241;SDS011;22283;42.748;12.732;2023-03-23T22:55:39;12.20;;;6.00;;
36241;SDS011;22283;42.748;12.732;2023-03-23T23:00:45;13.48;;;5.63;;
36241;SDS011;22283;42.748;12.732;2023-03-23T23:05:48;7.35;;;5.03;;
36241;SDS011;22283;42.748;12.732;2023-03-23T23:10:51;12.27;;;6.68;;
36241;SDS011;22283;42.748;12.732;2023-03-23T23:15:56;18.95;;;12.50;;
36241;SDS011;22283;42.748;12.732;2023-03-23T23:20:58;10.55;;;6.68;;
36241;SDS011;22283;42.748;12.732;2023-03-23T23:26:00;11.50;;;6.40;;
36241;SDS011;22283;42.748;12.732;2023-03-23T23:31:02;11.38;;;6.13;;
36241;SDS011;22283;42.748;12.732;2023-03-23T23:36:03;9.15;;;5.65;;
36241;SDS011;22283;42.748;12.732;2023-03-23T23:41:04;8.50;;;4.97;;
36241;SDS011;22283;42.748;12.732;2023-03-23T23:46:06;7.85;;;5.32;;
36241;SDS011;22283;42.748;12.732;2023-03-23T23:51:06;10.47;;;5.23;;
36241;SDS011;22283;42.748;12.732;2023-03-23T23:56:07;7.40;;;4.07;;
